sensor_id;sensor_type;location;lat;lon;timestamp;pressure;altitude;pressure_sealevel;temperature;humidity
12536;BME280;6334;48.696;2.114;2024-02-16T00:00:00;99326.98;;;13.56;77.38
12536;BME280;6334;48.696;2.114;2024-02-16T00:02:30;99327.49;;;13.62;77.00
12536;BME280;6334;48.696;2.114;2024-02-16T00:05:02;99319.26;;;13.61;76.85
12536;BME280;6334;48.696;2.114;2024-02-16T00:07:33;99320.66;;;13.55;77.36
12536;BME280;6334;48.696;2.114;2024-02-16T00:10:04;99327.91;;;13.55;77.36
12536;BME280;6334;48.696;2.114;2024-02-16T00:12:34;99327.83;;;13.65;77.33
12536;BME280;6334;48.696;2.114;2024-02-16T00:15:05;99321.28;;;13.72;76.74
12536;BME280;6334;48.696;2.114;2024-02-16T00:17:37;99329.03;;;13.59;77.57
12536;BME280;6334;48.696;2.114;2024-02-16T00:20:08;99329.21;;;13.75;76.56
12536;BME280;6334;48.696;2.114;2024-02-16T00:22:38;99329.91;;;13.69;77.00
12536;BME280;6334;48.696;2.114;2024-02-16T00:25:09;99335.86;;;13.60;77.72
12536;BME280;6334;48.696;2.114;2024-02-16T00:27:38;99332.28;;;13.57;77.89
12536;BME280;6334;48.696;2.114;2024-02-16T00:30:09;99343.09;;;13.58;78.05
12536;BME280;6334;48.696;2.114;2024-02-16T00:32:39;99335.39;;;13.49;78.48
12536;BME280;6334;48.696;2.114;2024-02-16T00:35:11;99342.67;;;13.63;77.88
12536;BME280;6334;48.696;2.114;2024-02-16T00:40:16;99345.61;;;13.70;77.95
12536;BME280;6334;48.696;2.114;2024-02-16T00:42:49;99343.73;;;13.73;78.04
12536;BME280;6334;48.696;2.114;2024-02-16T00:45:19;99346.06;;;13.66;78.54
12536;BME280;6334;48.696;2.114;2024-02-16T00:47:48;99358.00;;;13.67;78.18
12536;BME280;6334;48.696;2.114;2024-02-16T00:50:18;99358.95;;;13.56;79.03
12536;BME280;6334;48.696;2.114;2024-02-16T00:52:49;99360.25;;;13.65;78.71
12536;BME280;6334;48.696;2.114;2024-02-16T00:55:20;99358.42;;;13.60;79.06
12536;BME280;6334;48.696;2.114;2024-02-16T01:00:25;99363.53;;;13.57;79.40
12536;BME280;6334;48.696;2.114;2024-02-16T01:02:55;99361.22;;;13.54;79.77
12536;BME280;6334;48.696;2.114;2024-02-16T01:05:25;99365.88;;;13.54;79.75
12536;BME280;6334;48.696;2.114;2024-02-16T01:07:57;99361.36;;;13.54;79.87
12536;BME280;6334;48.696;2.114;2024-02-16T01:10:27;99360.40;;;13.63;79.59
12536;BME280;6334;48.696;2.114;2024-02-16T01:12:57;99367.84;;;13.51;80.37
12536;BME280;6334;48.696;2.114;2024-02-16T01:15:28;99362.55;;;13.61;79.92
12536;BME280;6334;48.696;2.114;2024-02-16T01:17:57;99366.78;;;13.57;80.29
12536;BME280;6334;48.696;2.114;2024-02-16T01:20:29;99361.97;;;13.52;80.54
12536;BME280;6334;48.696;2.114;2024-02-16T01:23:00;99364.05;;;13.45;81.00
12536;BME280;6334;48.696;2.114;2024-02-16T01:25:29;99362.30;;;13.44;81.00
12536;BME280;6334;48.696;2.114;2024-02-16T01:27:59;99359.70;;;13.42;81.04
12536;BME280;6334;48.696;2.114;2024-02-16T01:30:30;99368.60;;;13.50;80.66
12536;BME280;6334;48.696;2.114;2024-02-16T01:33:01;99366.48;;;13.34;81.41
12536;BME280;6334;48.696;2.114;2024-02-16T01:35:30;99368.81;;;13.28;81.88
12536;BME280;6334;48.696;2.114;2024-02-16T01:40:44;99375.53;;;13.48;80.90
12536;BME280;6334;48.696;2.114;2024-02-16T01:43:18;99371.85;;;13.46;80.94
12536;BME280;6334;48.696;2.114;2024-02-16T01:45:44;99374.08;;;13.39;81.70
12536;BME280;6334;48.696;2.114;2024-02-16T01:50:48;99379.75;;;13.32;81.89
12536;BME280;6334;48.696;2.114;2024-02-16T01:53:18;99377.28;;;13.37;81.96
12536;BME280;6334;48.696;2.114;2024-02-16T01:55:49;99376.47;;;13.38;81.74
12536;BME280;6334;48.696;2.114;2024-02-16T01:58:20;99373.52;;;13.46;81.56
12536;BME280;6334;48.696;2.114;2024-02-16T02:00:50;99371.75;;;13.54;81.10
12536;BME280;6334;48.696;2.114;2024-02-16T02:03:21;99374.57;;;13.29;82.83
12536;BME280;6334;48.696;2.114;2024-02-16T02:05:52;99372.86;;;13.34;82.75
12536;BME280;6334;48.696;2.114;2024-02-16T02:08:24;99378.44;;;13.34;82.84
12536;BME280;6334;48.696;2.114;2024-02-16T02:10:54;99379.89;;;13.22;83.34
12536;BME280;6334;48.696;2.114;2024-02-16T02:13:23;99380.66;;;13.47;82.34
12536;BME280;6334;48.696;2.114;2024-02-16T02:15:53;99377.22;;;13.38;83.02
12536;BME280;6334;48.696;2.114;2024-02-16T02:18:24;99382.00;;;13.43;82.66
12536;BME280;6334;48.696;2.114;2024-02-16T02:20:54;99381.28;;;13.36;83.29
12536;BME280;6334;48.696;2.114;2024-02-16T02:23:25;99379.23;;;13.30;83.89
12536;BME280;6334;48.696;2.114;2024-02-16T02:25:55;99381.44;;;13.23;84.15
12536;BME280;6334;48.696;2.114;2024-02-16T02:28:26;99384.15;;;13.33;83.65
12536;BME280;6334;48.696;2.114;2024-02-16T02:30:55;99386.94;;;13.34;84.13
12536;BME280;6334;48.696;2.114;2024-02-16T02:33:27;99388.23;;;13.41;84.09
12536;BME280;6334;48.696;2.114;2024-02-16T02:35:57;99386.63;;;13.31;84.38
12536;BME280;6334;48.696;2.114;2024-02-16T02:38:30;99388.22;;;13.23;85.16
12536;BME280;6334;48.696;2.114;2024-02-16T02:41:01;99382.02;;;13.39;84.34
12536;BME280;6334;48.696;2.114;2024-02-16T02:43:31;99385.48;;;13.30;85.33
12536;BME280;6334;48.696;2.114;2024-02-16T02:46:01;99378.20;;;13.36;84.72
12536;BME280;6334;48.696;2.114;2024-02-16T02:51:08;99386.47;;;13.39;85.08
12536;BME280;6334;48.696;2.114;2024-02-16T02:53:40;99386.50;;;13.29;85.62
12536;BME280;6334;48.696;2.114;2024-02-16T02:56:11;99386.94;;;13.32;85.61
12536;BME280;6334;48.696;2.114;2024-02-16T02:58:40;99389.53;;;13.21;86.64
12536;BME280;6334;48.696;2.114;2024-02-16T03:01:10;99383.22;;;13.31;85.95
12536;BME280;6334;48.696;2.114;2024-02-16T03:03:41;99382.83;;;13.32;86.06
12536;BME280;6334;48.696;2.114;2024-02-16T03:06:12;99384.15;;;13.38;86.33
12536;BME280;6334;48.696;2.114;2024-02-16T03:08:44;99387.89;;;13.48;85.67
12536;BME280;6334;48.696;2.114;2024-02-16T03:11:15;99389.69;;;13.33;86.69
12536;BME280;6334;48.696;2.114;2024-02-16T03:13:47;99392.27;;;13.40;86.92
12536;BME280;6334;48.696;2.114;2024-02-16T03:16:20;99388.16;;;13.30;86.92
12536;BME280;6334;48.696;2.114;2024-02-16T03:18:53;99392.78;;;13.34;87.51
12536;BME280;6334;48.696;2.114;2024-02-16T03:21:21;99388.92;;;13.32;87.14
12536;BME280;6334;48.696;2.114;2024-02-16T03:23:52;99389.88;;;13.41;86.72
12536;BME280;6334;48.696;2.114;2024-02-16T03:26:21;99393.78;;;13.29;87.76
12536;BME280;6334;48.696;2.114;2024-02-16T03:28:53;99398.91;;;13.37;87.12
12536;BME280;6334;48.696;2.114;2024-02-16T03:31:23;99398.95;;;13.33;87.40
12536;BME280;6334;48.696;2.114;2024-02-16T03:33:53;99397.73;;;13.39;87.54
12536;BME280;6334;48.696;2.114;2024-02-16T03:36:25;99390.26;;;13.38;87.21
12536;BME280;6334;48.696;2.114;2024-02-16T03:38:56;99403.68;;;13.37;87.58
12536;BME280;6334;48.696;2.114;2024-02-16T03:41:26;99407.23;;;13.32;87.76
12536;BME280;6334;48.696;2.114;2024-02-16T03:43:55;99416.22;;;13.28;88.19
12536;BME280;6334;48.696;2.114;2024-02-16T03:46:25;99420.81;;;13.36;87.82
12536;BME280;6334;48.696;2.114;2024-02-16T03:48:56;99422.78;;;13.52;87.04
12536;BME280;6334;48.696;2.114;2024-02-16T03:51:27;99423.49;;;13.48;87.15
12536;BME280;6334;48.696;2.114;2024-02-16T03:53:58;99432.20;;;13.24;88.95
12536;BME280;6334;48.696;2.114;2024-02-16T03:56:34;99432.77;;;13.33;88.78
12536;BME280;6334;48.696;2.114;2024-02-16T03:59:04;99432.11;;;13.43;88.15
12536;BME280;6334;48.696;2.114;2024-02-16T04:01:35;99435.30;;;13.32;88.31
12536;BME280;6334;48.696;2.114;2024-02-16T04:04:04;99437.72;;;13.24;88.88
12536;BME280;6334;48.696;2.114;2024-02-16T04:06:35;99438.42;;;13.36;88.81
12536;BME280;6334;48.696;2.114;2024-02-16T04:09:07;99439.33;;;13.16;89.75
12536;BME280;6334;48.696;2.114;2024-02-16T04:11:37;99443.30;;;13.24;89.53
12536;BME280;6334;48.696;2.114;2024-02-16T04:14:07;99442.97;;;13.24;89.48
12536;BME280;6334;48.696;2.114;2024-02-16T04:16:37;99452.24;;;13.32;88.70
12536;BME280;6334;48.696;2.114;2024-02-16T04:19:09;99457.94;;;13.29;89.07
12536;BME280;6334;48.696;2.114;2024-02-16T04:21:40;99464.91;;;13.17;89.70
12536;BME280;6334;48.696;2.114;2024-02-16T04:24:10;99459.91;;;13.18;90.08
12536;BME280;6334;48.696;2.114;2024-02-16T04:26:41;99475.09;;;13.26;89.68
12536;BME280;6334;48.696;2.114;2024-02-16T04:31:46;99474.63;;;13.19;89.85
12536;BME280;6334;48.696;2.114;2024-02-16T04:34:18;99480.23;;;13.29;89.45
12536;BME280;6334;48.696;2.114;2024-02-16T04:36:49;99487.30;;;13.18;90.37
12536;BME280;6334;48.696;2.114;2024-02-16T04:39:19;99482.91;;;13.27;89.86
12536;BME280;6334;48.696;2.114;2024-02-16T04:41:49;99500.13;;;13.21;90.30
12536;BME280;6334;48.696;2.114;2024-02-16T04:44:19;99500.41;;;13.22;90.63
12536;BME280;6334;48.696;2.114;2024-02-16T04:46:50;99504.59;;;13.07;91.19
12536;BME280;6334;48.696;2.114;2024-02-16T04:49:24;99510.21;;;13.13;91.14
12536;BME280;6334;48.696;2.114;2024-02-16T04:52:00;99508.35;;;13.20;90.75
12536;BME280;6334;48.696;2.114;2024-02-16T04:54:31;99523.74;;;13.21;90.83
12536;BME280;6334;48.696;2.114;2024-02-16T04:57:03;99523.38;;;13.17;91.18
12536;BME280;6334;48.696;2.114;2024-02-16T04:59:33;99528.33;;;13.08;91.53
12536;BME280;6334;48.696;2.114;2024-02-16T05:02:03;99523.59;;;13.10;91.83
12536;BME280;6334;48.696;2.114;2024-02-16T05:04:33;99530.42;;;13.19;91.55
12536;BME280;6334;48.696;2.114;2024-02-16T05:07:04;99534.67;;;13.19;91.39
12536;BME280;6334;48.696;2.114;2024-02-16T05:09:35;99542.44;;;13.25;91.57
12536;BME280;6334;48.696;2.114;2024-02-16T05:12:05;99541.68;;;13.25;91.12
12536;BME280;6334;48.696;2.114;2024-02-16T05:14:35;99546.90;;;13.21;91.44
12536;BME280;6334;48.696;2.114;2024-02-16T05:17:04;99548.14;;;13.10;92.33
12536;BME280;6334;48.696;2.114;2024-02-16T05:19:35;99555.09;;;13.21;92.06
12536;BME280;6334;48.696;2.114;2024-02-16T05:22:05;99552.31;;;13.27;91.68
12536;BME280;6334;48.696;2.114;2024-02-16T05:24:37;99555.89;;;13.42;90.58
12536;BME280;6334;48.696;2.114;2024-02-16T05:27:06;99557.49;;;13.34;91.40
12536;BME280;6334;48.696;2.114;2024-02-16T05:29:37;99561.27;;;13.16;92.37
12536;BME280;6334;48.696;2.114;2024-02-16T05:32:07;99565.87;;;13.17;92.35
12536;BME280;6334;48.696;2.114;2024-02-16T05:34:36;99564.33;;;13.19;92.38
12536;BME280;6334;48.696;2.114;2024-02-16T05:37:07;99560.89;;;13.22;92.17
12536;BME280;6334;48.696;2.114;2024-02-16T05:39:37;99565.22;;;13.20;92.37
12536;BME280;6334;48.696;2.114;2024-02-16T05:42:23;99576.34;;;13.18;92.73
12536;BME280;6334;48.696;2.114;2024-02-16T05:44:54;99577.79;;;13.24;92.55
12536;BME280;6334;48.696;2.114;2024-02-16T05:47:24;99575.50;;;13.23;92.41
12536;BME280;6334;48.696;2.114;2024-02-16T05:49:54;99572.02;;;13.14;93.26
12536;BME280;6334;48.696;2.114;2024-02-16T05:52:24;99580.13;;;13.24;92.70
12536;BME280;6334;48.696;2.114;2024-02-16T05:54:54;99575.43;;;13.13;93.32
12536;BME280;6334;48.696;2.114;2024-02-16T05:57:24;99573.44;;;13.28;92.58
12536;BME280;6334;48.696;2.114;2024-02-16T05:59:54;99578.53;;;13.25;92.86
12536;BME280;6334;48.696;2.114;2024-02-16T06:02:25;99580.56;;;13.31;92.74
12536;BME280;6334;48.696;2.114;2024-02-16T06:04:56;99581.16;;;13.26;93.22
12536;BME280;6334;48.696;2.114;2024-02-16T06:07:26;99584.63;;;13.28;93.22
12536;BME280;6334;48.696;2.114;2024-02-16T06:09:56;99600.32;;;13.25;93.62
12536;BME280;6334;48.696;2.114;2024-02-16T06:12:26;99606.81;;;13.29;93.26
12536;BME280;6334;48.696;2.114;2024-02-16T06:14:57;99608.92;;;13.20;93.91
12536;BME280;6334;48.696;2.114;2024-02-16T06:17:27;99617.08;;;13.15;94.01
12536;BME280;6334;48.696;2.114;2024-02-16T06:19:57;99622.29;;;13.17;94.66
12536;BME280;6334;48.696;2.114;2024-02-16T06:22:27;99627.62;;;13.23;94.01
12536;BME280;6334;48.696;2.114;2024-02-16T06:24:57;99634.22;;;13.17;94.77
12536;BME280;6334;48.696;2.114;2024-02-16T06:27:28;99625.93;;;13.09;94.68
12536;BME280;6334;48.696;2.114;2024-02-16T06:29:58;99628.70;;;13.15;94.85
12536;BME280;6334;48.696;2.114;2024-02-16T06:32:30;99636.77;;;13.27;94.19
12536;BME280;6334;48.696;2.114;2024-02-16T06:35:00;99629.64;;;13.11;95.25
12536;BME280;6334;48.696;2.114;2024-02-16T06:37:35;99630.88;;;13.23;94.23
12536;BME280;6334;48.696;2.114;2024-02-16T06:40:08;99636.05;;;13.18;94.58
12536;BME280;6334;48.696;2.114;2024-02-16T06:42:39;99639.36;;;13.09;95.36
12536;BME280;6334;48.696;2.114;2024-02-16T06:45:08;99643.36;;;13.16;94.72
12536;BME280;6334;48.696;2.114;2024-02-16T06:47:40;99647.71;;;13.13;95.49
12536;BME280;6334;48.696;2.114;2024-02-16T06:50:09;99652.81;;;13.03;95.75
12536;BME280;6334;48.696;2.114;2024-02-16T06:52:40;99653.02;;;13.09;95.27
12536;BME280;6334;48.696;2.114;2024-02-16T06:55:10;99661.77;;;13.18;95.00
12536;BME280;6334;48.696;2.114;2024-02-16T07:00:15;99664.95;;;13.08;95.35
12536;BME280;6334;48.696;2.114;2024-02-16T07:02:46;99668.89;;;13.08;95.19
12536;BME280;6334;48.696;2.114;2024-02-16T07:05:16;99673.83;;;13.11;95.53
12536;BME280;6334;48.696;2.114;2024-02-16T07:07:48;99681.85;;;13.20;94.63
12536;BME280;6334;48.696;2.114;2024-02-16T07:10:18;99684.86;;;13.20;94.86
12536;BME280;6334;48.696;2.114;2024-02-16T07:12:49;99684.80;;;13.27;93.65
12536;BME280;6334;48.696;2.114;2024-02-16T07:15:19;99684.81;;;13.07;95.18
12536;BME280;6334;48.696;2.114;2024-02-16T07:17:50;99694.50;;;13.12;95.48
12536;BME280;6334;48.696;2.114;2024-02-16T07:20:33;99600.72;;;12.40;95.43
12536;BME280;6334;48.696;2.114;2024-02-16T07:23:06;99706.86;;;13.12;94.60
12536;BME280;6334;48.696;2.114;2024-02-16T07:25:36;99711.44;;;13.07;95.25
12536;BME280;6334;48.696;2.114;2024-02-16T07:28:06;99719.42;;;13.20;94.64
12536;BME280;6334;48.696;2.114;2024-02-16T07:30:38;99727.63;;;13.10;94.77
12536;BME280;6334;48.696;2.114;2024-02-16T07:33:08;99737.26;;;13.15;94.62
12536;BME280;6334;48.696;2.114;2024-02-16T07:35:38;99740.30;;;12.98;95.36
12536;BME280;6334;48.696;2.114;2024-02-16T07:38:10;99747.78;;;13.03;95.99
12536;BME280;6334;48.696;2.114;2024-02-16T07:40:41;99755.19;;;12.95;95.86
12536;BME280;6334;48.696;2.114;2024-02-16T07:43:11;99752.02;;;13.10;94.72
12536;BME280;6334;48.696;2.114;2024-02-16T07:45:41;99759.48;;;13.02;95.33
12536;BME280;6334;48.696;2.114;2024-02-16T07:50:47;99759.59;;;12.95;94.69
12536;BME280;6334;48.696;2.114;2024-02-16T07:53:16;99762.86;;;13.23;93.33
12536;BME280;6334;48.696;2.114;2024-02-16T07:55:47;99768.53;;;13.04;94.40
12536;BME280;6334;48.696;2.114;2024-02-16T08:00:57;99784.77;;;13.01;94.59
12536;BME280;6334;48.696;2.114;2024-02-16T08:03:27;99791.33;;;13.08;93.70
12536;BME280;6334;48.696;2.114;2024-02-16T08:05:59;99794.91;;;13.11;93.70
12536;BME280;6334;48.696;2.114;2024-02-16T08:08:29;99800.69;;;13.08;93.33
12536;BME280;6334;48.696;2.114;2024-02-16T08:10:59;99792.63;;;13.00;94.33
12536;BME280;6334;48.696;2.114;2024-02-16T08:13:29;99795.77;;;13.05;94.28
12536;BME280;6334;48.696;2.114;2024-02-16T08:15:59;99798.22;;;13.07;94.10
12536;BME280;6334;48.696;2.114;2024-02-16T08:18:30;99796.66;;;13.12;94.42
12536;BME280;6334;48.696;2.114;2024-02-16T08:21:01;99802.50;;;13.28;92.69
12536;BME280;6334;48.696;2.114;2024-02-16T08:23:30;99804.94;;;13.18;93.53
12536;BME280;6334;48.696;2.114;2024-02-16T08:26:00;99809.02;;;13.09;94.17
12536;BME280;6334;48.696;2.114;2024-02-16T08:28:31;99804.80;;;13.10;94.16
12536;BME280;6334;48.696;2.114;2024-02-16T08:31:01;99815.45;;;13.05;94.79
12536;BME280;6334;48.696;2.114;2024-02-16T08:33:32;99814.22;;;13.11;94.27
12536;BME280;6334;48.696;2.114;2024-02-16T08:36:01;99822.59;;;13.14;94.37
12536;BME280;6334;48.696;2.114;2024-02-16T08:38:31;99823.88;;;13.08;94.69
12536;BME280;6334;48.696;2.114;2024-02-16T08:41:01;99827.78;;;13.16;94.18
12536;BME280;6334;48.696;2.114;2024-02-16T08:43:32;99834.69;;;13.05;94.92
12536;BME280;6334;48.696;2.114;2024-02-16T08:46:02;99837.27;;;13.14;94.76
12536;BME280;6334;48.696;2.114;2024-02-16T08:51:06;99844.58;;;13.20;93.86
12536;BME280;6334;48.696;2.114;2024-02-16T08:53:38;99847.07;;;13.30;93.78
12536;BME280;6334;48.696;2.114;2024-02-16T08:56:10;99857.02;;;13.19;94.13
12536;BME280;6334;48.696;2.114;2024-02-16T09:01:15;99863.80;;;13.15;94.27
12536;BME280;6334;48.696;2.114;2024-02-16T09:03:45;99865.01;;;13.20;94.17
12536;BME280;6334;48.696;2.114;2024-02-16T09:06:14;99861.09;;;13.30;93.99
12536;BME280;6334;48.696;2.114;2024-02-16T09:08:44;99867.94;;;13.27;94.09
12536;BME280;6334;48.696;2.114;2024-02-16T09:11:13;99868.02;;;13.44;92.76
12536;BME280;6334;48.696;2.114;2024-02-16T09:13:43;99872.83;;;13.25;94.21
12536;BME280;6334;48.696;2.114;2024-02-16T09:16:13;99880.05;;;13.27;94.36
12536;BME280;6334;48.696;2.114;2024-02-16T09:18:42;99877.75;;;13.39;93.31
12536;BME280;6334;48.696;2.114;2024-02-16T09:21:12;99880.47;;;13.07;95.98
12536;BME280;6334;48.696;2.114;2024-02-16T09:23:41;99889.98;;;13.27;95.26
12536;BME280;6334;48.696;2.114;2024-02-16T09:26:11;99892.05;;;13.36;95.59
12536;BME280;6334;48.696;2.114;2024-02-16T09:28:40;99898.36;;;13.30;96.17
12536;BME280;6334;48.696;2.114;2024-02-16T09:31:13;99900.22;;;13.08;96.97
12536;BME280;6334;48.696;2.114;2024-02-16T09:33:40;99904.50;;;13.17;96.69
12536;BME280;6334;48.696;2.114;2024-02-16T09:36:09;99907.03;;;13.17;96.59
12536;BME280;6334;48.696;2.114;2024-02-16T09:38:39;99910.88;;;13.23;96.64
12536;BME280;6334;48.696;2.114;2024-02-16T09:41:08;99914.61;;;13.21;96.90
12536;BME280;6334;48.696;2.114;2024-02-16T09:43:38;99917.98;;;13.20;97.14
12536;BME280;6334;48.696;2.114;2024-02-16T09:46:11;99926.47;;;13.21;97.61
12536;BME280;6334;48.696;2.114;2024-02-16T09:48:40;99930.52;;;13.30;96.87
12536;BME280;6334;48.696;2.114;2024-02-16T09:51:10;99936.52;;;13.27;97.43
12536;BME280;6334;48.696;2.114;2024-02-16T09:53:39;99945.20;;;13.36;96.96
12536;BME280;6334;48.696;2.114;2024-02-16T09:56:09;99946.55;;;13.34;97.83
12536;BME280;6334;48.696;2.114;2024-02-16T09:58:40;99953.24;;;13.27;99.14
12536;BME280;6334;48.696;2.114;2024-02-16T10:01:16;99957.36;;;13.29;99.11
12536;BME280;6334;48.696;2.114;2024-02-16T10:03:43;99953.99;;;13.35;98.50
12536;BME280;6334;48.696;2.114;2024-02-16T10:06:10;99957.49;;;13.32;98.59
12536;BME280;6334;48.696;2.114;2024-02-16T10:08:55;99969.17;;;13.28;99.34
12536;BME280;6334;48.696;2.114;2024-02-16T10:11:27;99975.81;;;13.19;99.21
12536;BME280;6334;48.696;2.114;2024-02-16T10:13:57;99980.20;;;13.28;99.47
12536;BME280;6334;48.696;2.114;2024-02-16T10:16:27;100008.08;;;12.96;100.00
12536;BME280;6334;48.696;2.114;2024-02-16T10:34:47;100026.30;;;12.95;95.08
12536;BME280;6334;48.696;2.114;2024-02-16T10:37:17;100033.41;;;13.10;94.63
12536;BME280;6334;48.696;2.114;2024-02-16T10:39:46;100035.28;;;12.96;95.38
12536;BME280;6334;48.696;2.114;2024-02-16T10:42:16;100043.48;;;13.01;93.50
12536;BME280;6334;48.696;2.114;2024-02-16T10:44:47;100046.38;;;13.04;93.87
12536;BME280;6334;48.696;2.114;2024-02-16T10:51:28;100063.58;;;12.89;94.64
12536;BME280;6334;48.696;2.114;2024-02-16T10:53:48;100066.86;;;13.12;93.18
12536;BME280;6334;48.696;2.114;2024-02-16T10:56:26;100066.98;;;13.21;91.79
12536;BME280;6334;48.696;2.114;2024-02-16T10:58:49;100073.47;;;13.26;92.57
12536;BME280;6334;48.696;2.114;2024-02-16T11:01:47;100075.89;;;13.35;91.38
12536;BME280;6334;48.696;2.114;2024-02-16T11:10:29;100089.92;;;13.36;92.51
12536;BME280;6334;48.696;2.114;2024-02-16T11:13:04;100098.61;;;13.39;90.62
12536;BME280;6334;48.696;2.114;2024-02-16T11:15:35;100107.14;;;13.50;90.15
12536;BME280;6334;48.696;2.114;2024-02-16T11:18:04;100113.84;;;13.57;89.29
12536;BME280;6334;48.696;2.114;2024-02-16T11:20:36;100103.07;;;13.21;90.61
12536;BME280;6334;48.696;2.114;2024-02-16T11:23:06;100112.17;;;13.17;89.46
12536;BME280;6334;48.696;2.114;2024-02-16T11:25:36;100114.03;;;13.42;88.73
12536;BME280;6334;48.696;2.114;2024-02-16T11:28:06;100112.67;;;13.29;89.59
12536;BME280;6334;48.696;2.114;2024-02-16T11:30:36;100119.52;;;13.35;89.56
12536;BME280;6334;48.696;2.114;2024-02-16T11:33:10;100120.92;;;13.36;89.24
12536;BME280;6334;48.696;2.114;2024-02-16T11:35:39;100125.45;;;13.30;89.47
12536;BME280;6334;48.696;2.114;2024-02-16T11:40:52;100128.73;;;13.50;89.25
12536;BME280;6334;48.696;2.114;2024-02-16T11:43:19;100139.28;;;13.36;88.53
12536;BME280;6334;48.696;2.114;2024-02-16T11:45:46;100135.93;;;13.41;88.67
12536;BME280;6334;48.696;2.114;2024-02-16T11:48:23;100143.52;;;13.50;88.74
12536;BME280;6334;48.696;2.114;2024-02-16T11:51:02;100145.69;;;13.76;87.11
12536;BME280;6334;48.696;2.114;2024-02-16T11:56:36;100156.22;;;13.53;88.15
12536;BME280;6334;48.696;2.114;2024-02-16T11:59:10;100125.80;;;13.57;87.13
12536;BME280;6334;48.696;2.114;2024-02-16T12:01:49;100155.85;;;13.39;87.58
12536;BME280;6334;48.696;2.114;2024-02-16T12:04:18;100163.13;;;13.69;87.04
12536;BME280;6334;48.696;2.114;2024-02-16T12:07:12;100161.05;;;13.65;86.71
12536;BME280;6334;48.696;2.114;2024-02-16T12:13:23;100169.58;;;13.61;86.22
12536;BME280;6334;48.696;2.114;2024-02-16T12:15:53;100168.04;;;13.56;85.42
12536;BME280;6334;48.696;2.114;2024-02-16T12:18:26;100167.84;;;13.60;85.50
12536;BME280;6334;48.696;2.114;2024-02-16T12:21:06;100165.52;;;13.40;85.31
12536;BME280;6334;48.696;2.114;2024-02-16T12:30:51;100165.34;;;13.64;84.76
12536;BME280;6334;48.696;2.114;2024-02-16T12:33:24;100171.44;;;13.37;83.08
12536;BME280;6334;48.696;2.114;2024-02-16T12:35:54;100169.77;;;13.49;84.15
12536;BME280;6334;48.696;2.114;2024-02-16T12:38:25;100166.44;;;13.32;82.88
12536;BME280;6334;48.696;2.114;2024-02-16T12:40:55;100176.21;;;13.37;83.11
12536;BME280;6334;48.696;2.114;2024-02-16T12:43:32;100173.13;;;13.48;82.94
12536;BME280;6334;48.696;2.114;2024-02-16T12:46:06;100180.13;;;13.53;81.98
12536;BME280;6334;48.696;2.114;2024-02-16T12:51:10;100180.33;;;13.63;81.23
12536;BME280;6334;48.696;2.114;2024-02-16T12:53:40;100184.69;;;13.67;83.07
12536;BME280;6334;48.696;2.114;2024-02-16T12:56:10;100186.80;;;13.58;82.92
12536;BME280;6334;48.696;2.114;2024-02-16T12:58:40;100193.87;;;13.67;82.67
12536;BME280;6334;48.696;2.114;2024-02-16T13:01:10;100198.20;;;13.56;81.83
12536;BME280;6334;48.696;2.114;2024-02-16T13:03:42;100199.56;;;13.63;82.80
12536;BME280;6334;48.696;2.114;2024-02-16T13:06:13;100206.28;;;13.45;83.17
12536;BME280;6334;48.696;2.114;2024-02-16T13:08:45;100213.98;;;13.46;82.80
12536;BME280;6334;48.696;2.114;2024-02-16T13:11:15;100213.17;;;13.64;82.44
12536;BME280;6334;48.696;2.114;2024-02-16T13:13:48;100219.98;;;13.41;82.67
12536;BME280;6334;48.696;2.114;2024-02-16T13:16:18;100226.09;;;13.58;81.78
12536;BME280;6334;48.696;2.114;2024-02-16T13:21:21;100232.90;;;13.26;81.18
12536;BME280;6334;48.696;2.114;2024-02-16T13:23:55;100237.08;;;13.25;80.93
12536;BME280;6334;48.696;2.114;2024-02-16T13:26:25;100245.37;;;13.28;81.38
12536;BME280;6334;48.696;2.114;2024-02-16T13:28:57;100243.05;;;13.41;80.80
12536;BME280;6334;48.696;2.114;2024-02-16T13:31:27;100248.48;;;13.34;80.49
12536;BME280;6334;48.696;2.114;2024-02-16T13:33:56;100250.06;;;12.92;80.77
12536;BME280;6334;48.696;2.114;2024-02-16T13:36:26;100250.58;;;13.01;79.01
12536;BME280;6334;48.696;2.114;2024-02-16T13:38:56;100250.45;;;13.29;80.05
12536;BME280;6334;48.696;2.114;2024-02-16T13:41:26;100259.34;;;13.38;79.43
12536;BME280;6334;48.696;2.114;2024-02-16T13:43:57;100257.20;;;13.41;80.19
12536;BME280;6334;48.696;2.114;2024-02-16T13:46:27;100258.33;;;13.15;78.55
12536;BME280;6334;48.696;2.114;2024-02-16T13:51:32;100270.81;;;13.42;80.16
12536;BME280;6334;48.696;2.114;2024-02-16T13:54:03;100271.48;;;13.14;79.99
12536;BME280;6334;48.696;2.114;2024-02-16T13:56:33;100277.09;;;12.98;79.34
12536;BME280;6334;48.696;2.114;2024-02-16T13:59:03;100279.05;;;13.39;78.73
12536;BME280;6334;48.696;2.114;2024-02-16T14:01:38;100273.55;;;13.51;79.88
12536;BME280;6334;48.696;2.114;2024-02-16T14:04:09;100282.08;;;13.54;78.44
12536;BME280;6334;48.696;2.114;2024-02-16T14:06:40;100287.41;;;12.81;80.40
12536;BME280;6334;48.696;2.114;2024-02-16T14:11:25;100280.87;;;13.24;78.93
12536;BME280;6334;48.696;2.114;2024-02-16T14:13:55;100281.67;;;13.00;78.19
12536;BME280;6334;48.696;2.114;2024-02-16T14:16:25;100291.64;;;13.07;78.00
12536;BME280;6334;48.696;2.114;2024-02-16T14:18:56;100293.57;;;13.29;77.85
12536;BME280;6334;48.696;2.114;2024-02-16T14:21:26;100295.30;;;13.26;75.66
12536;BME280;6334;48.696;2.114;2024-02-16T14:23:56;100301.51;;;13.44;77.33
12536;BME280;6334;48.696;2.114;2024-02-16T14:26:27;100302.30;;;13.42;76.85
12536;BME280;6334;48.696;2.114;2024-02-16T14:28:57;100306.49;;;13.58;77.28
12536;BME280;6334;48.696;2.114;2024-02-16T14:31:28;100308.64;;;13.47;76.79
12536;BME280;6334;48.696;2.114;2024-02-16T14:33:58;100314.87;;;13.66;76.31
12536;BME280;6334;48.696;2.114;2024-02-16T14:36:29;100313.66;;;13.48;75.86
12536;BME280;6334;48.696;2.114;2024-02-16T14:38:59;100320.36;;;13.37;75.82
12536;BME280;6334;48.696;2.114;2024-02-16T14:41:30;100322.27;;;13.13;76.10
12536;BME280;6334;48.696;2.114;2024-02-16T14:44:00;100328.32;;;13.45;75.51
12536;BME280;6334;48.696;2.114;2024-02-16T14:46:30;100335.48;;;13.33;75.76